Wilmington, NC

10:34 PM EDT on July 30, 2016 (GMT -0400)
Downey Branch Office Park | | Change Station

Elev 30 ft 34.22 °N, 77.90 °W | Updated 2 minutes ago

Clear
Clear
83.7 °F
Feels Like 92 °F
N
1.7
Wind Variable Wind from SSE

Today
High -- | Low -- °F
--% Chance of Precip.
Yesterday
High -- | Low -- °F
Precip. -- in
Pressure 30.00 in
Visibility 10.0 miles
Clouds Clear
Heat Index 92 °F
Dew Point 75 °F
Humidity 76%
Rainfall 0.00 in
Snow Depth Not available.
6:21 AM 8:14 PM
Waning Crescent, 9% visible
METAR KILM 310153Z AUTO 21008KT 10SM CLR 29/24 A3000 RMK AO2 SLP158 T02940239 PWINO
Pressure 30.00 in
Visibility 10.0 miles
Clouds Clear
Heat Index 92 °F
Dew Point 75 °F
Humidity 76%
Rainfall 0.00 in
Snow Depth Not available.
6:21 AM 8:14 PM
Waning Crescent, 9% visible
METAR KILM 310153Z AUTO 21008KT 10SM CLR 29/24 A3000 RMK AO2 SLP158 T02940239 PWINO

10-Day Weather Forecast

Almanac

Astronomy

Jul. 30, 2016 Rise Set
Actual Time
Civil Twilight
Nautical Twilight
Astronomical Twilight
Moon
Length of Visible Light
Length of Day
Tomorrow will be .
, % of the Moon is Illuminated

Today's Extremes

State Highs State Lows

Community

WunderPhotos

Upload Photos

1,928,714 photos uploaded!

WunderBlog® & News

Nearby

Air Quality

  Air Quality AQ Index Pollutant
Not available.

Snow Depth

Station Depth Elevation

Earthquake Activity

City Distance Mag. Time & Date
Minimum magnitude displayed is 2.5.

Coastal Water Temperatures

Place Temperature

Stations

Nearby Weather Stations

Station Location Temp. Windchill Dew Point Humidity Wind Precip. Elev Updated Type
                   

Watches & Warnings

There are currently no watches in effect.